Terminal Aerodrome Forecast
Issued by NWS New Orleans/Baton Rouge, LA

Home | Current Version | Previous Version | Text Only | Print | Product List | Glossary On
Versions: 1 2 3 4 5 6 7 8 9 10 11 12 13
000
FTUS44 KLIX 190500 RRA
TAFBTR
TAF
KBTR 190540Z 1906/2006 05006KT 5SM BR OVC004
      TEMPO 1910/1912 4SM -SHRA SCT004 BKN020
     FM191200 09007KT 3SM SHRA OVC020
     FM191800 07006KT 1SM SHRA OVC015
     FM200000 05005KT 3SM SHRA OVC015
      TEMPO 2003/2006 5SM -RA BKN018=

USA.gov is the U.S. government's official web portal to all federal, state and local government web resources and services.